Strona główna
METAR-TAF:

METAR-TAF

Lotnisko :

Port lotniczy Kano

Kano, Nigeria

Szerokość geograficzna: 12-03N, Długość geograficzna: 008-32E, wysokość: 476 m

Aktualna obserwacja pogody

Raport powstał 1 godzina i 11 minut temu, godzina 13:00 UTC
Wiatr 10 kt od południowy zachód
Temperatura 32°C
Wilgotność 59%
Ciśnienie 1015 hPa
Widzialność 10 km lub więcej
Mało chmury na wysokości 1200 ft

METAR: DNKN 211300Z 23010KT 9999 FEW012 32/23 Q1015 NOSIG

czas: 15:11 (14:11 UTC)

Prognoza

Raport powstał 4 godziny i 11 minut temu, godzina 10:00 UTC
Prognoza ważna od 21 godzina 12 UTC do 22 godzina 18 UTC
Wiatr 10 kt od południowy zachód
Widzialność 10 km lub więcej
Brak chmur poniżej 1500 m i brak chmur cumulonimbus
Przejściowo
od 21 godzina 15 UTC do 21 godzina 20 UTC
Rozproszone chmury na wysokości 1300 ft
Mało chmury na wysokości 2000 ft, Cumulonimbus.
burza,

TAF: DNKN 211000Z 2112/2218 23010KT CAVOK TEMPO 2115/2120 TS SCT013 FEW020CB

Obserwacja i prognoza pogody dla ponad 4000 lotnisk (raport METAR i TAF).

Dostępne stacje oznaczono żółtymi i czerwonymi punktami na mapie.

Najedź kursorem aby zobaczyć nazwę stacji.

Kliknij aby zobaczyć obserwacje i prognozy pogody.

Aby zmienić mapę: kliknij na zielony przycisk z czarnym krzyżykiem, aby powiększyć; na zielony przycisk z myślnikiem, aby pomniejszyć; na zielone strzałki, aby przejść do map sąsiednich.


METAR-TAF: